createdAt,value
2018-08-12T00:00:01.009Z,16.80
2018-08-12T00:02:28.523Z,16.70
2018-08-12T00:04:56.018Z,16.80
2018-08-12T00:07:23.517Z,16.80
2018-08-12T00:09:51.053Z,16.70
2018-08-12T00:12:18.579Z,16.60
2018-08-12T00:14:46.070Z,16.50
2018-08-12T00:17:13.959Z,16.40
2018-08-12T00:19:42.207Z,16.10
2018-08-12T00:22:09.729Z,16.10
2018-08-12T00:24:37.211Z,16.20
2018-08-12T00:27:04.807Z,16.20
2018-08-12T00:29:32.455Z,16.10
2018-08-12T00:31:59.945Z,16.00
2018-08-12T00:34:27.446Z,15.90
2018-08-12T00:36:55.004Z,15.90
2018-08-12T00:39:22.520Z,15.90
2018-08-12T00:41:50.036Z,16.00
2018-08-12T00:44:17.525Z,15.90
2018-08-12T00:46:45.106Z,15.70
2018-08-12T00:49:13.003Z,15.60
2018-08-12T00:51:40.527Z,15.40
2018-08-12T00:54:08.022Z,15.50
2018-08-12T00:56:35.765Z,15.50
2018-08-12T00:59:03.259Z,15.50
2018-08-12T01:01:30.763Z,15.60
2018-08-12T01:03:58.293Z,15.60
2018-08-12T01:06:25.918Z,15.50
2018-08-12T01:08:53.407Z,15.60
2018-08-12T01:11:20.917Z,15.60
2018-08-12T01:13:48.416Z,15.60
2018-08-12T01:16:15.923Z,15.60
2018-08-12T01:18:43.420Z,15.50
2018-08-12T01:21:11.110Z,15.50
2018-08-12T01:23:38.604Z,15.40
2018-08-12T01:26:06.284Z,15.30
2018-08-12T01:28:33.771Z,15.30
2018-08-12T01:31:01.250Z,15.20
2018-08-12T01:33:28.760Z,15.20
2018-08-12T01:35:57.079Z,15.10
2018-08-12T01:38:24.542Z,15.00
2018-08-12T01:40:52.030Z,14.90
2018-08-12T01:43:19.535Z,14.80
2018-08-12T01:45:47.807Z,14.60
2018-08-12T01:48:15.541Z,14.60
2018-08-12T01:50:43.364Z,14.60
2018-08-12T01:53:10.878Z,14.60
2018-08-12T01:55:38.460Z,14.60
2018-08-12T01:58:05.979Z,14.50
2018-08-12T02:00:33.469Z,14.50
2018-08-12T02:03:00.977Z,14.40
2018-08-12T02:05:28.483Z,14.40
2018-08-12T02:07:55.987Z,14.40
2018-08-12T02:10:23.503Z,14.50
2018-08-12T02:12:51.008Z,14.50
2018-08-12T02:15:18.711Z,14.50
2018-08-12T02:17:46.448Z,14.50
2018-08-12T02:20:15.330Z,14.50
2018-08-12T02:22:43.534Z,14.60
2018-08-12T02:25:11.025Z,14.60
2018-08-12T02:27:38.528Z,14.50
2018-08-12T02:30:06.054Z,14.50
2018-08-12T02:32:33.562Z,14.50
2018-08-12T02:35:01.043Z,14.50
2018-08-12T02:37:28.562Z,14.30
2018-08-12T02:39:56.072Z,14.20
2018-08-12T02:42:23.576Z,14.10
2018-08-12T02:44:51.065Z,14.00
2018-08-12T02:47:18.557Z,14.00
2018-08-12T02:49:46.046Z,14.00
2018-08-12T02:52:14.028Z,14.00
2018-08-12T02:54:41.510Z,14.10
2018-08-12T02:57:09.027Z,14.10
2018-08-12T02:59:37.282Z,13.80
2018-08-12T03:02:04.993Z,13.80
2018-08-12T03:04:32.474Z,13.70
2018-08-12T03:06:59.998Z,13.70
2018-08-12T03:09:27.494Z,13.60
2018-08-12T03:11:55.029Z,13.60
2018-08-12T03:14:22.529Z,13.50
2018-08-12T03:16:50.036Z,13.40
2018-08-12T03:19:20.397Z,13.40
2018-08-12T03:21:47.914Z,13.40
2018-08-12T03:24:15.477Z,13.40
2018-08-12T03:26:42.978Z,13.30
2018-08-12T03:29:10.506Z,13.30
2018-08-12T03:31:37.994Z,13.40
2018-08-12T03:34:05.767Z,13.30
2018-08-12T03:36:33.254Z,13.30
2018-08-12T03:39:00.767Z,13.40
2018-08-12T03:41:28.281Z,13.40
2018-08-12T03:43:55.891Z,13.40
2018-08-12T03:46:23.372Z,13.40
2018-08-12T03:48:50.898Z,13.40
2018-08-12T03:51:18.396Z,13.40
2018-08-12T03:53:45.963Z,13.40
2018-08-12T03:56:13.416Z,13.40
2018-08-12T03:58:40.941Z,13.40
2018-08-12T04:01:08.675Z,13.30
2018-08-12T04:03:36.318Z,13.30
2018-08-12T04:06:03.815Z,13.20
2018-08-12T04:08:31.320Z,13.20
2018-08-12T04:10:58.802Z,13.20
2018-08-12T04:13:26.488Z,13.20
2018-08-12T04:15:53.969Z,13.10
2018-08-12T04:18:21.491Z,13.10
2018-08-12T04:20:48.991Z,13.10
2018-08-12T04:23:16.635Z,13.20
2018-08-12T04:25:44.123Z,13.20
2018-08-12T04:28:11.631Z,13.10
2018-08-12T04:30:39.121Z,13.20
2018-08-12T04:33:07.293Z,13.30
2018-08-12T04:35:35.000Z,13.60
2018-08-12T04:38:02.513Z,13.70
2018-08-12T04:40:30.020Z,13.60
2018-08-12T04:42:57.518Z,13.50
2018-08-12T04:45:25.028Z,13.40
2018-08-12T04:47:52.526Z,13.40
2018-08-12T04:50:20.020Z,13.40
2018-08-12T04:52:47.531Z,13.40
2018-08-12T04:55:15.094Z,13.60
2018-08-12T04:57:42.607Z,13.90
2018-08-12T05:00:10.800Z,14.20
2018-08-12T05:02:38.336Z,14.30
2018-08-12T05:05:06.937Z,14.30
2018-08-12T05:07:34.438Z,14.30
2018-08-12T05:10:01.934Z,14.50
2018-08-12T05:12:29.445Z,14.60
2018-08-12T05:14:57.869Z,14.90
2018-08-12T05:17:25.517Z,14.90
2018-08-12T05:19:52.996Z,15.20
2018-08-12T05:22:20.515Z,15.20
2018-08-12T05:24:48.051Z,15.00
2018-08-12T05:27:15.800Z,14.80
2018-08-12T05:29:43.311Z,15.10
2018-08-12T05:32:10.802Z,15.10
2018-08-12T05:34:38.316Z,15.30
2018-08-12T05:37:05.865Z,15.70
2018-08-12T05:39:33.368Z,16.50
2018-08-12T05:42:00.866Z,17.20
2018-08-12T05:44:28.384Z,17.90
2018-08-12T05:46:55.903Z,18.70
2018-08-12T05:49:23.456Z,19.40
2018-08-12T05:51:50.990Z,20.40
2018-08-12T05:54:18.614Z,21.90
2018-08-12T05:56:46.270Z,23.50
2018-08-12T05:59:13.967Z,24.40
2018-08-12T06:01:43.138Z,25.50
2018-08-12T06:04:10.633Z,25.40
2018-08-12T06:06:38.124Z,25.60
2018-08-12T06:09:05.964Z,24.00
2018-08-12T06:11:33.442Z,24.40
2018-08-12T06:14:00.971Z,23.50
2018-08-12T06:16:28.598Z,23.50
2018-08-12T06:18:56.286Z,25.50
2018-08-12T06:21:23.798Z,27.40
2018-08-12T06:23:51.306Z,28.70
2018-08-12T06:26:18.796Z,29.50
2018-08-12T06:28:46.493Z,30.10
2018-08-12T06:31:14.744Z,28.30
2018-08-12T06:33:42.774Z,28.30
2018-08-12T06:36:10.270Z,26.80
2018-08-12T06:38:37.800Z,25.50
2018-08-12T06:41:05.481Z,26.20
2018-08-12T06:43:33.077Z,28.10
2018-08-12T06:46:00.565Z,29.20
2018-08-12T06:48:28.135Z,27.90
2018-08-12T06:50:55.852Z,26.60
2018-08-12T06:53:23.382Z,27.70
2018-08-12T06:55:50.878Z,27.40
2018-08-12T06:58:18.374Z,26.10
2018-08-12T07:00:45.915Z,26.60
2018-08-12T07:03:13.420Z,27.30
2018-08-12T07:05:40.924Z,28.40
2018-08-12T07:08:08.713Z,28.40
2018-08-12T07:10:36.463Z,28.50
2018-08-12T07:13:31.855Z,26.90
2018-08-12T07:15:59.350Z,25.00
2018-08-12T07:18:27.050Z,25.80
2018-08-12T07:20:54.554Z,26.70
2018-08-12T07:23:22.073Z,27.50
2018-08-12T07:25:49.550Z,28.00
2018-08-12T07:28:17.069Z,28.20
2018-08-12T07:30:44.560Z,28.40
2018-08-12T07:33:12.095Z,28.50
2018-08-12T07:35:40.189Z,29.20
2018-08-12T07:38:08.034Z,29.80
2018-08-12T07:40:36.459Z,30.20
2018-08-12T07:43:03.954Z,30.20
2018-08-12T07:45:31.478Z,30.50
2018-08-12T07:47:58.980Z,30.60
2018-08-12T07:50:26.675Z,30.20
2018-08-12T07:52:54.157Z,30.80
2018-08-12T07:55:21.659Z,31.00
2018-08-12T07:57:49.148Z,31.20
2018-08-12T08:00:17.401Z,32.30
2018-08-12T08:02:44.984Z,32.20
2018-08-12T08:05:12.510Z,32.50
2018-08-12T08:07:40.008Z,32.40
2018-08-12T08:10:08.319Z,32.50
2018-08-12T08:12:35.860Z,32.70
2018-08-12T08:15:03.379Z,32.90
2018-08-12T08:17:30.870Z,32.90
2018-08-12T08:19:58.407Z,32.90
2018-08-12T08:22:25.998Z,32.80
2018-08-12T08:24:53.519Z,32.60
2018-08-12T08:27:21.009Z,32.50
2018-08-12T08:29:48.529Z,33.00
2018-08-12T08:32:16.988Z,33.00
2018-08-12T08:34:44.490Z,33.00
2018-08-12T08:37:11.978Z,33.00
2018-08-12T08:39:39.490Z,32.90
2018-08-12T08:42:07.274Z,33.10
2018-08-12T08:44:35.015Z,32.90
2018-08-12T08:47:02.500Z,32.70
2018-08-12T08:49:30.003Z,32.40
2018-08-12T08:51:57.502Z,32.10
2018-08-12T08:54:26.365Z,31.70
2018-08-12T08:56:54.631Z,32.40
2018-08-12T08:59:22.146Z,32.30
2018-08-12T09:01:49.632Z,32.00
2018-08-12T09:04:17.906Z,31.30
2018-08-12T09:06:45.482Z,31.30
2018-08-12T09:09:13.299Z,30.30
2018-08-12T09:11:40.529Z,29.10
2018-08-12T09:14:08.583Z,27.90
2018-08-12T09:16:36.066Z,27.20
2018-08-12T09:19:03.563Z,26.80
2018-08-12T09:21:31.086Z,26.50
2018-08-12T09:23:58.650Z,26.40
2018-08-12T09:26:26.268Z,26.30
2018-08-12T09:28:53.759Z,26.30
2018-08-12T09:31:21.290Z,26.20
2018-08-12T09:33:48.780Z,26.20
2018-08-12T09:36:16.465Z,26.10
2018-08-12T09:38:44.023Z,25.90
2018-08-12T09:41:11.526Z,25.80
2018-08-12T09:43:39.023Z,25.80
2018-08-12T09:46:06.853Z,25.70
2018-08-12T09:48:34.362Z,25.60
2018-08-12T09:51:01.863Z,25.70
2018-08-12T09:53:29.371Z,25.40
2018-08-12T09:55:57.002Z,25.20
2018-08-12T09:58:25.055Z,25.20
2018-08-12T10:00:53.318Z,25.40
2018-08-12T10:03:21.446Z,25.60
2018-08-12T10:05:49.709Z,25.80
2018-08-12T10:08:17.718Z,26.00
2018-08-12T10:10:46.190Z,26.00
2018-08-12T10:13:14.258Z,26.20
2018-08-12T10:15:42.564Z,26.30
2018-08-12T10:18:11.351Z,26.40
2018-08-12T10:20:38.882Z,26.50
2018-08-12T10:23:06.586Z,26.50
2018-08-12T10:25:34.101Z,26.50
2018-08-12T10:28:01.609Z,26.50
2018-08-12T10:30:29.149Z,26.40
2018-08-12T10:32:56.814Z,26.40
2018-08-12T10:35:25.091Z,26.20
2018-08-12T10:37:53.534Z,26.10
2018-08-12T10:40:21.052Z,26.20
2018-08-12T10:42:48.692Z,26.40
2018-08-12T10:45:16.387Z,26.50
2018-08-12T10:47:43.882Z,26.60
2018-08-12T10:50:12.132Z,26.70
2018-08-12T10:52:39.640Z,26.70
2018-08-12T10:55:08.927Z,26.60
2018-08-12T10:57:36.445Z,26.60
2018-08-12T11:00:03.967Z,26.70
2018-08-12T11:02:33.135Z,26.70
2018-08-12T11:05:00.649Z,26.60
2018-08-12T11:07:28.257Z,26.50
2018-08-12T11:09:55.906Z,26.80
2018-08-12T11:12:23.444Z,26.90
2018-08-12T11:14:50.923Z,27.00
2018-08-12T11:17:18.422Z,27.10
2018-08-12T11:19:45.950Z,27.20
2018-08-12T11:22:13.455Z,27.40
2018-08-12T11:24:40.951Z,27.60
2018-08-12T11:27:08.824Z,27.70
2018-08-12T11:29:36.451Z,27.50
2018-08-12T11:32:03.974Z,27.60
2018-08-12T11:34:31.466Z,27.70
2018-08-12T11:36:58.984Z,27.80
2018-08-12T11:39:26.619Z,27.80
2018-08-12T11:41:54.127Z,27.70
2018-08-12T11:44:21.636Z,27.60
2018-08-12T11:46:49.161Z,27.20
2018-08-12T11:49:16.844Z,27.20
2018-08-12T11:51:44.347Z,27.40
2018-08-12T11:54:11.838Z,27.50
2018-08-12T11:56:39.505Z,27.60
2018-08-12T11:59:07.203Z,27.80
2018-08-12T12:01:34.805Z,27.90
2018-08-12T12:04:02.462Z,28.10
2018-08-12T12:06:29.962Z,28.20
2018-08-12T12:08:57.466Z,28.30
2018-08-12T12:11:24.992Z,28.20
2018-08-12T12:13:52.475Z,28.10
2018-08-12T12:16:19.966Z,28.00
2018-08-12T12:18:47.459Z,27.80
2018-08-12T12:21:15.014Z,27.70
2018-08-12T12:23:42.541Z,27.70
2018-08-12T12:26:10.061Z,27.90
2018-08-12T12:28:37.586Z,28.00
2018-08-12T12:31:05.078Z,28.20
2018-08-12T12:33:32.578Z,28.30
2018-08-12T12:36:00.412Z,28.50
2018-08-12T12:38:27.921Z,28.60
2018-08-12T12:40:55.459Z,28.60
2018-08-12T12:43:22.966Z,28.70
2018-08-12T12:45:50.469Z,28.60
2018-08-12T12:48:18.001Z,28.50
2018-08-12T12:50:46.429Z,28.40
2018-08-12T12:53:13.934Z,28.40
2018-08-12T12:55:41.424Z,28.40
2018-08-12T12:58:09.299Z,28.40
2018-08-12T13:00:36.808Z,28.50
2018-08-12T13:03:04.322Z,28.50
2018-08-12T13:05:32.590Z,28.70
2018-08-12T13:08:00.110Z,28.60
2018-08-12T13:10:27.685Z,28.50
2018-08-12T13:12:55.460Z,28.60
2018-08-12T13:15:22.964Z,28.60
2018-08-12T13:17:50.478Z,28.80
2018-08-12T13:20:17.974Z,28.90
2018-08-12T13:22:46.045Z,28.90
2018-08-12T13:25:14.304Z,29.30
2018-08-12T13:27:41.826Z,29.30
2018-08-12T13:30:10.372Z,29.40
2018-08-12T13:32:37.907Z,29.40
2018-08-12T13:35:05.483Z,29.10
2018-08-12T13:37:33.005Z,28.90
2018-08-12T13:40:00.494Z,28.00
2018-08-12T13:42:28.003Z,27.70
2018-08-12T13:44:55.779Z,27.60
2018-08-12T13:47:23.299Z,27.80
2018-08-12T13:49:50.813Z,28.10
2018-08-12T13:52:18.341Z,28.40
2018-08-12T13:54:46.431Z,28.80
2018-08-12T13:57:13.948Z,29.00
2018-08-12T13:59:41.463Z,29.00
2018-08-12T14:02:09.181Z,29.10
2018-08-12T14:04:36.869Z,29.10
2018-08-12T14:07:04.534Z,29.10
2018-08-12T14:09:32.766Z,29.10
2018-08-12T14:12:00.245Z,29.10
2018-08-12T14:14:28.513Z,28.50
2018-08-12T14:16:56.829Z,28.30
2018-08-12T14:19:24.340Z,28.20
2018-08-12T14:21:51.882Z,28.40
2018-08-12T14:24:19.388Z,28.50
2018-08-12T14:26:47.943Z,28.50
2018-08-12T14:29:15.760Z,28.50
2018-08-12T14:31:43.433Z,28.60
2018-08-12T14:34:10.946Z,28.70
2018-08-12T14:36:38.439Z,28.80
2018-08-12T14:39:05.988Z,28.80
2018-08-12T14:41:33.501Z,28.80
2018-08-12T14:44:01.013Z,28.80
2018-08-12T14:46:28.522Z,28.80
2018-08-12T14:48:56.046Z,28.80
2018-08-12T14:51:23.546Z,28.80
2018-08-12T14:53:51.095Z,28.60
2018-08-12T14:56:18.625Z,28.70
2018-08-12T14:58:46.278Z,28.90
2018-08-12T15:01:13.775Z,28.80
2018-08-12T15:03:41.299Z,28.30
2018-08-12T15:06:08.887Z,28.20
2018-08-12T15:08:36.527Z,28.10
2018-08-12T15:11:04.043Z,27.80
2018-08-12T15:13:31.701Z,27.90
2018-08-12T15:15:59.244Z,28.10
2018-08-12T15:18:26.811Z,28.20
2018-08-12T15:20:54.336Z,28.20
2018-08-12T15:23:22.621Z,28.40
2018-08-12T15:25:50.138Z,28.40
2018-08-12T15:28:17.639Z,28.50
2018-08-12T15:30:45.926Z,28.60
2018-08-12T15:33:13.420Z,28.60
2018-08-12T15:35:40.953Z,28.50
2018-08-12T15:38:08.473Z,28.40
2018-08-12T15:40:35.982Z,28.30
2018-08-12T15:43:03.469Z,28.20
2018-08-12T15:45:30.995Z,28.20
2018-08-12T15:47:58.493Z,28.30
2018-08-12T15:50:26.000Z,28.30
2018-08-12T15:52:53.498Z,28.40
2018-08-12T15:55:21.004Z,28.30
2018-08-12T15:57:48.501Z,28.00
2018-08-12T16:00:17.070Z,28.00
2018-08-12T16:02:44.565Z,28.10
2018-08-12T16:05:12.086Z,28.20
2018-08-12T16:07:39.572Z,28.30
2018-08-12T16:10:08.162Z,28.40
2018-08-12T16:12:35.820Z,28.30
2018-08-12T16:15:03.421Z,28.30
2018-08-12T16:17:30.929Z,28.30
2018-08-12T16:19:58.909Z,28.30
2018-08-12T16:22:26.652Z,28.30
2018-08-12T16:24:54.146Z,28.30
2018-08-12T16:27:21.641Z,28.20
2018-08-12T16:29:49.852Z,28.20
2018-08-12T16:32:18.295Z,28.10
2018-08-12T16:34:45.867Z,28.00
2018-08-12T16:37:13.354Z,28.00
2018-08-12T16:39:40.869Z,27.80
2018-08-12T16:42:08.589Z,27.70
2018-08-12T16:44:36.086Z,27.70
2018-08-12T16:47:03.607Z,27.70
2018-08-12T16:49:31.111Z,27.70
2018-08-12T16:51:59.392Z,27.70
2018-08-12T16:54:28.295Z,27.80
2018-08-12T16:56:56.701Z,27.80
2018-08-12T16:59:25.840Z,27.80
2018-08-12T17:01:53.839Z,27.70
2018-08-12T17:04:22.308Z,27.80
2018-08-12T17:06:51.288Z,27.60
2018-08-12T17:09:19.520Z,27.60
2018-08-12T17:11:47.401Z,27.60
2018-08-12T17:14:15.441Z,27.40
2018-08-12T17:16:43.357Z,27.40
2018-08-12T17:19:11.083Z,27.30
2018-08-12T17:21:39.412Z,27.20
2018-08-12T17:24:08.069Z,27.10
2018-08-12T17:26:36.005Z,26.90
2018-08-12T17:29:04.343Z,26.80
2018-08-12T17:31:33.005Z,26.60
2018-08-12T17:34:00.941Z,26.50
2018-08-12T17:36:29.117Z,26.50
2018-08-12T17:38:57.287Z,26.40
2018-08-12T17:41:26.523Z,26.20
2018-08-12T17:43:54.652Z,26.20
2018-08-12T17:46:22.937Z,26.10
2018-08-12T17:48:51.187Z,26.10
2018-08-12T17:51:19.345Z,26.00
2018-08-12T17:53:47.965Z,25.90
2018-08-12T17:56:15.936Z,25.90
2018-08-12T17:58:44.010Z,25.90
2018-08-12T18:01:11.969Z,25.80
2018-08-12T18:03:39.729Z,25.80
2018-08-12T18:06:08.254Z,25.70
2018-08-12T18:08:36.178Z,25.70
2018-08-12T18:11:04.307Z,25.70
2018-08-12T18:13:32.111Z,25.60
2018-08-12T18:16:00.460Z,25.60
2018-08-12T18:18:28.448Z,25.50
2018-08-12T18:20:56.862Z,25.50
2018-08-12T18:23:25.601Z,25.30
2018-08-12T18:25:53.700Z,25.30
2018-08-12T18:28:22.046Z,25.30
2018-08-12T18:30:49.995Z,25.20
2018-08-12T18:33:17.850Z,25.20
2018-08-12T18:35:46.311Z,25.10
2018-08-12T18:38:14.154Z,25.10
2018-08-12T18:40:42.236Z,25.00
2018-08-12T18:43:10.508Z,24.90
2018-08-12T18:45:38.500Z,24.90
2018-08-12T18:48:06.596Z,24.90
2018-08-12T18:50:34.554Z,24.90
2018-08-12T18:53:02.641Z,24.80
2018-08-12T18:55:30.540Z,24.70
2018-08-12T18:57:58.616Z,24.50
2018-08-12T19:00:26.852Z,24.50
2018-08-12T19:02:54.412Z,24.50
2018-08-12T19:05:21.911Z,24.40
2018-08-12T19:07:49.421Z,24.30
2018-08-12T19:10:16.930Z,24.20
2018-08-12T19:12:44.439Z,24.10
2018-08-12T19:15:12.034Z,23.90
2018-08-12T19:17:39.566Z,23.80
2018-08-12T19:20:07.993Z,23.60
2018-08-12T19:22:35.744Z,23.60
2018-08-12T19:25:03.228Z,23.60
2018-08-12T19:27:30.757Z,23.50
2018-08-12T19:29:58.290Z,23.50
2018-08-12T19:32:25.841Z,23.30
2018-08-12T19:34:53.335Z,23.20
2018-08-12T19:37:20.850Z,23.10
2018-08-12T19:39:48.465Z,23.00
2018-08-12T19:42:16.887Z,23.00
2018-08-12T19:44:44.426Z,22.90
2018-08-12T19:47:12.289Z,22.80
2018-08-12T19:49:39.798Z,22.70
2018-08-12T19:52:07.306Z,22.70
2018-08-12T19:54:34.978Z,22.70
2018-08-12T19:57:02.482Z,22.70
2018-08-12T19:59:29.968Z,22.70
2018-08-12T20:01:57.770Z,22.80
2018-08-12T20:04:25.447Z,22.80
2018-08-12T20:06:52.971Z,22.80
2018-08-12T20:09:20.465Z,22.80
2018-08-12T20:11:48.075Z,22.80
2018-08-12T20:14:15.816Z,22.80
2018-08-12T20:16:43.347Z,22.70
2018-08-12T20:19:11.937Z,22.60
2018-08-12T20:21:39.449Z,22.50
2018-08-12T20:24:07.030Z,22.40
2018-08-12T20:26:34.565Z,22.50
2018-08-12T20:29:02.052Z,22.50
2018-08-12T20:31:29.542Z,22.50
2018-08-12T20:33:57.113Z,22.50
2018-08-12T20:36:24.625Z,22.60
2018-08-12T20:38:52.130Z,22.70
2018-08-12T20:41:19.621Z,22.60
2018-08-12T20:43:47.122Z,22.50
2018-08-12T20:46:15.040Z,22.30
2018-08-12T20:48:42.564Z,22.20
2018-08-12T20:51:10.092Z,22.20
2018-08-12T20:53:37.606Z,22.20
2018-08-12T20:56:05.098Z,22.20
2018-08-12T20:58:32.620Z,22.00
2018-08-12T21:01:00.144Z,21.90
2018-08-12T21:03:27.644Z,21.80
2018-08-12T21:05:55.252Z,21.70
2018-08-12T21:08:22.764Z,21.60
2018-08-12T21:10:50.277Z,21.50
2018-08-12T21:13:18.307Z,21.50
2018-08-12T21:15:45.846Z,21.40
2018-08-12T21:18:13.714Z,21.40
2018-08-12T21:20:41.213Z,21.40
2018-08-12T21:23:08.766Z,21.30
2018-08-12T21:25:36.413Z,21.30
2018-08-12T21:28:03.903Z,21.30
2018-08-12T21:30:31.392Z,21.20
2018-08-12T21:32:58.909Z,21.20
2018-08-12T21:35:26.530Z,21.10
2018-08-12T21:37:54.080Z,21.00
2018-08-12T21:40:21.565Z,20.90
2018-08-12T21:42:49.080Z,20.90
2018-08-12T21:45:17.478Z,20.80
2018-08-12T21:47:45.024Z,20.70
2018-08-12T21:50:12.541Z,20.70
2018-08-12T21:52:40.054Z,20.60
2018-08-12T21:55:07.555Z,20.50
2018-08-12T21:57:35.099Z,20.50
2018-08-12T22:00:02.600Z,20.50
2018-08-12T22:02:30.171Z,20.40
2018-08-12T22:04:57.662Z,20.40
2018-08-12T22:07:25.466Z,20.30
2018-08-12T22:09:52.959Z,20.30
2018-08-12T22:12:20.470Z,20.30
2018-08-12T22:14:47.973Z,20.20
2018-08-12T22:17:15.778Z,20.10
2018-08-12T22:19:43.294Z,20.00
2018-08-12T22:22:10.942Z,20.00
2018-08-12T22:24:38.454Z,19.90
2018-08-12T22:27:05.959Z,19.80
2018-08-12T22:29:33.470Z,19.80
2018-08-12T22:32:00.959Z,19.70
2018-08-12T22:34:28.466Z,19.70
2018-08-12T22:36:55.967Z,19.70
2018-08-12T22:39:24.389Z,19.70
2018-08-12T22:41:51.903Z,19.60
2018-08-12T22:44:19.430Z,19.60
2018-08-12T22:46:47.704Z,19.50
2018-08-12T22:49:15.447Z,19.50
2018-08-12T22:51:42.946Z,19.50
2018-08-12T22:54:10.446Z,19.40
2018-08-12T22:56:37.939Z,19.40
2018-08-12T22:59:05.478Z,19.50
2018-08-12T23:01:32.993Z,19.40
2018-08-12T23:04:00.505Z,19.40
2018-08-12T23:06:28.006Z,19.30
2018-08-12T23:08:55.771Z,19.30
2018-08-12T23:11:23.255Z,19.30
2018-08-12T23:13:50.783Z,19.20
2018-08-12T23:16:21.770Z,19.20
2018-08-12T23:18:49.287Z,19.10
2018-08-12T23:21:16.932Z,19.10
2018-08-12T23:23:44.453Z,19.10
2018-08-12T23:26:11.952Z,19.00
2018-08-12T23:28:39.512Z,19.00
2018-08-12T23:31:07.008Z,18.90
2018-08-12T23:33:34.522Z,18.90
2018-08-12T23:36:02.010Z,18.80
2018-08-12T23:38:29.537Z,18.80
2018-08-12T23:40:57.041Z,18.80
2018-08-12T23:43:24.581Z,18.70
2018-08-12T23:45:52.095Z,18.70
2018-08-12T23:48:19.576Z,18.70
2018-08-12T23:50:47.100Z,18.70
2018-08-12T23:53:14.612Z,18.70
2018-08-12T23:55:42.095Z,18.70
2018-08-12T23:58:10.209Z,18.70
